createdAt,value
2022-10-06T00:02:10.549Z,3.40
2022-10-06T00:05:01.440Z,3.40
2022-10-06T00:07:49.183Z,2.90
2022-10-06T00:10:36.499Z,3.27
2022-10-06T00:13:23.306Z,3.20
2022-10-06T00:16:39.404Z,2.97
2022-10-06T00:23:32.584Z,2.87
2022-10-06T00:26:54.113Z,3.27
2022-10-06T00:30:07.020Z,2.97
2022-10-06T00:33:19.432Z,3.10
2022-10-06T00:36:30.772Z,3.03
2022-10-06T00:39:25.780Z,3.43
2022-10-06T00:42:47.065Z,3.23
2022-10-06T00:45:42.357Z,3.50
2022-10-06T00:48:56.705Z,3.57
2022-10-06T00:55:45.845Z,2.97
2022-10-06T00:58:49.071Z,3.70
2022-10-06T01:02:21.852Z,2.93
2022-10-06T01:05:26.859Z,3.40
2022-10-06T01:11:51.886Z,3.27
2022-10-06T01:15:05.075Z,3.10
2022-10-06T01:17:59.404Z,3.43
2022-10-06T01:21:11.726Z,3.67
2022-10-06T01:27:42.454Z,3.50
2022-10-06T01:30:46.240Z,2.90
2022-10-06T01:34:16.688Z,3.40
2022-10-06T01:40:52.523Z,3.20
2022-10-06T01:43:47.272Z,3.17
2022-10-06T01:50:07.685Z,3.30
2022-10-06T02:00:41.334Z,3.47
2022-10-06T02:07:22.089Z,3.20
2022-10-06T02:10:39.298Z,3.37
2022-10-06T02:13:41.024Z,3.07
2022-10-06T02:16:48.979Z,3.20
2022-10-06T02:20:14.148Z,3.20
2022-10-06T02:23:50.321Z,2.80
2022-10-06T02:27:01.843Z,3.03
2022-10-06T02:30:45.190Z,3.50
2022-10-06T02:34:17.074Z,3.07
2022-10-06T02:37:11.199Z,3.27
2022-10-06T02:39:58.263Z,3.07
2022-10-06T02:42:45.761Z,3.20
2022-10-06T02:46:14.058Z,2.87
2022-10-06T02:49:31.553Z,2.93
2022-10-06T02:52:23.635Z,3.20
2022-10-06T02:55:17.914Z,3.33
2022-10-06T02:58:14.230Z,2.93
2022-10-06T03:01:22.136Z,3.27
2022-10-06T03:04:48.940Z,3.30
2022-10-06T03:07:42.720Z,3.07
2022-10-06T03:11:09.463Z,3.37
2022-10-06T03:14:03.115Z,3.27
2022-10-06T03:20:53.291Z,3.23
2022-10-06T03:23:49.867Z,3.13
2022-10-06T03:29:51.925Z,3.47
2022-10-06T03:32:54.538Z,3.30
2022-10-06T03:36:07.711Z,2.90
2022-10-06T03:39:08.025Z,2.93
2022-10-06T03:41:57.187Z,3.33
2022-10-06T03:44:43.686Z,3.17
2022-10-06T03:47:31.905Z,3.00
2022-10-06T03:50:21.880Z,3.53
2022-10-06T03:53:18.776Z,2.93
2022-10-06T03:56:16.401Z,2.80
2022-10-06T04:02:29.722Z,2.93
2022-10-06T04:05:33.678Z,3.40
2022-10-06T04:08:46.991Z,3.27
2022-10-06T04:11:48.828Z,3.10
2022-10-06T04:14:36.392Z,3.00
2022-10-06T04:17:24.443Z,3.00
2022-10-06T04:20:19.745Z,2.57
2022-10-06T04:23:08.702Z,2.93
2022-10-06T04:26:02.015Z,3.20
2022-10-06T04:29:01.988Z,3.00
2022-10-06T04:31:51.127Z,3.20
2022-10-06T04:35:19.912Z,2.97
2022-10-06T04:38:49.712Z,3.07
2022-10-06T04:41:59.977Z,3.07
2022-10-06T04:45:14.757Z,2.43
2022-10-06T04:48:03.035Z,2.43
2022-10-06T04:50:55.207Z,3.00
2022-10-06T04:53:44.449Z,2.37
2022-10-06T04:56:33.701Z,2.07
2022-10-06T04:59:44.807Z,2.33
2022-10-06T05:02:36.582Z,2.43
2022-10-06T05:05:34.569Z,2.10
2022-10-06T05:08:33.567Z,2.10
2022-10-06T05:11:25.652Z,2.17
2022-10-06T05:14:16.551Z,2.27
2022-10-06T05:17:08.217Z,2.30
2022-10-06T05:19:56.784Z,2.00
2022-10-06T05:23:00.001Z,2.13
2022-10-06T05:25:52.269Z,2.10
2022-10-06T05:28:39.937Z,2.07
2022-10-06T05:31:29.784Z,2.10
2022-10-06T05:34:18.968Z,1.63
2022-10-06T05:37:06.859Z,1.90
2022-10-06T05:40:03.086Z,1.87
2022-10-06T05:43:07.051Z,1.80
2022-10-06T05:45:56.681Z,1.77
2022-10-06T05:48:49.555Z,1.50
2022-10-06T05:51:41.800Z,1.70
2022-10-06T05:54:36.881Z,1.40
2022-10-06T05:57:29.542Z,0.97
2022-10-06T06:00:18.431Z,1.10
2022-10-06T06:03:10.006Z,0.80
2022-10-06T06:05:58.007Z,0.90
2022-10-06T06:08:53.425Z,0.80
2022-10-06T06:12:06.470Z,0.73
2022-10-06T06:15:25.012Z,0.70
2022-10-06T06:18:23.300Z,0.80
2022-10-06T06:21:13.844Z,0.67
2022-10-06T06:24:08.554Z,0.80
2022-10-06T06:40:18.935Z,0.57
2022-10-06T06:43:09.448Z,0.80
2022-10-06T06:46:56.929Z,0.60
2022-10-06T06:49:44.583Z,0.80
2022-10-06T06:53:04.960Z,0.80
2022-10-06T06:56:04.292Z,0.83
2022-10-06T06:59:03.588Z,0.83
2022-10-06T07:01:54.706Z,0.90
2022-10-06T07:04:44.146Z,0.60
2022-10-06T07:07:34.292Z,0.80
2022-10-06T07:10:23.963Z,0.67
2022-10-06T07:13:33.562Z,0.70
2022-10-06T07:16:52.675Z,0.70
2022-10-06T07:19:56.619Z,0.90
2022-10-06T07:26:19.712Z,1.00
2022-10-06T07:29:17.537Z,0.90
2022-10-06T07:32:09.070Z,0.93
2022-10-06T07:35:01.241Z,1.03
2022-10-06T07:38:12.128Z,0.90
2022-10-06T07:41:25.655Z,0.80
2022-10-06T07:44:22.523Z,0.90
2022-10-06T07:47:14.445Z,1.03
2022-10-06T07:50:21.346Z,0.70
2022-10-06T07:53:13.010Z,1.10
2022-10-06T07:56:10.738Z,0.97
2022-10-06T07:59:27.948Z,1.30
2022-10-06T08:02:40.397Z,1.40
2022-10-06T08:05:32.500Z,1.00
2022-10-06T08:08:19.679Z,1.00
2022-10-06T08:11:50.459Z,0.80
2022-10-06T08:14:47.919Z,1.00
2022-10-06T08:17:52.439Z,1.00
2022-10-06T08:21:03.604Z,1.10
2022-10-06T08:23:52.727Z,1.17
2022-10-06T08:26:40.482Z,0.90
2022-10-06T08:29:28.201Z,1.20
2022-10-06T08:32:22.347Z,0.90
2022-10-06T08:35:15.944Z,0.83
2022-10-06T08:38:05.964Z,1.00
2022-10-06T08:41:22.340Z,0.90
2022-10-06T08:45:01.815Z,1.20
2022-10-06T08:48:34.733Z,1.00
2022-10-06T08:51:47.635Z,0.90
2022-10-06T08:55:09.635Z,1.67
2022-10-06T08:58:39.319Z,1.13
2022-10-06T09:02:00.792Z,1.40
2022-10-06T09:04:51.230Z,1.00
2022-10-06T09:08:02.190Z,1.00
2022-10-06T09:11:22.301Z,0.73
2022-10-06T09:14:25.041Z,0.90
2022-10-06T09:17:55.607Z,1.07
2022-10-06T09:21:00.554Z,0.90
2022-10-06T09:24:00.496Z,1.20
2022-10-06T09:27:23.660Z,1.10
2022-10-06T09:30:14.677Z,1.20
2022-10-06T09:33:41.584Z,0.90
2022-10-06T09:37:01.258Z,1.10
2022-10-06T09:40:15.283Z,1.40
2022-10-06T09:43:18.454Z,1.10
2022-10-06T09:46:41.040Z,1.40
2022-10-06T09:49:34.881Z,1.10
2022-10-06T09:52:24.309Z,0.90
2022-10-06T09:55:30.420Z,1.10
2022-10-06T09:58:49.484Z,1.30
2022-10-06T10:01:43.044Z,1.13
2022-10-06T10:04:51.666Z,1.17
2022-10-06T10:07:52.736Z,0.80
2022-10-06T10:10:44.479Z,1.10
2022-10-06T10:13:59.364Z,1.00
2022-10-06T10:16:53.529Z,1.20
2022-10-06T10:19:51.081Z,1.13
2022-10-06T10:23:18.343Z,1.10
2022-10-06T10:26:27.311Z,1.13
2022-10-06T10:29:51.786Z,1.23
2022-10-06T10:33:01.517Z,1.17
2022-10-06T10:36:10.265Z,0.97
2022-10-06T10:39:12.068Z,1.17
2022-10-06T10:42:24.622Z,1.20
2022-10-06T10:45:26.701Z,1.00
2022-10-06T10:49:09.398Z,1.07
2022-10-06T10:52:38.953Z,0.90
2022-10-06T10:55:55.081Z,1.10
2022-10-06T10:58:53.780Z,0.93
2022-10-06T11:01:55.368Z,1.17
2022-10-06T11:05:05.802Z,0.90
2022-10-06T11:08:37.864Z,1.20
2022-10-06T11:12:10.973Z,1.00
2022-10-06T11:15:44.156Z,1.00
2022-10-06T11:18:57.671Z,1.20
2022-10-06T11:22:23.362Z,1.10
2022-10-06T11:25:40.695Z,1.70
2022-10-06T11:28:43.035Z,1.23
2022-10-06T11:31:47.268Z,1.03
2022-10-06T11:34:43.105Z,1.13
2022-10-06T11:38:04.182Z,1.40
